createdAt,value
2022-11-21T00:01:15.622Z,20.60
2022-11-21T00:03:45.235Z,21.00
2022-11-21T00:06:13.544Z,21.67
2022-11-21T00:08:41.895Z,20.20
2022-11-21T00:11:10.233Z,20.07
2022-11-21T00:13:38.739Z,20.30
2022-11-21T00:16:07.403Z,20.33
2022-11-21T00:18:36.040Z,19.17
2022-11-21T00:21:08.668Z,19.03
2022-11-21T00:23:37.081Z,19.50
2022-11-21T00:26:06.203Z,18.67
2022-11-21T00:28:34.563Z,19.43
2022-11-21T00:31:02.960Z,19.47
2022-11-21T00:33:31.239Z,19.03
2022-11-21T00:35:59.606Z,19.37
2022-11-21T00:38:30.306Z,20.30
2022-11-21T00:40:58.810Z,18.93
2022-11-21T00:43:27.234Z,19.53
2022-11-21T00:45:55.574Z,20.33
2022-11-21T00:48:23.931Z,17.97
2022-11-21T00:50:52.371Z,20.13
2022-11-21T00:53:20.696Z,18.67
2022-11-21T00:55:50.453Z,18.63
2022-11-21T00:58:18.891Z,19.87
2022-11-21T01:00:47.395Z,20.93
2022-11-21T01:03:15.810Z,21.07
2022-11-21T01:05:44.153Z,21.13
2022-11-21T01:08:12.478Z,21.83
2022-11-21T01:10:40.837Z,23.73
2022-11-21T01:13:10.596Z,23.07
2022-11-21T01:15:38.927Z,23.40
2022-11-21T01:18:07.299Z,24.37
2022-11-21T01:20:35.594Z,23.03
2022-11-21T01:23:03.885Z,24.03
2022-11-21T01:25:32.275Z,23.90
2022-11-21T01:28:00.626Z,23.53
2022-11-21T01:30:30.390Z,23.20
2022-11-21T01:32:58.683Z,23.07
2022-11-21T01:35:27.074Z,21.77
2022-11-21T01:37:55.460Z,23.37
2022-11-21T01:40:23.847Z,22.03
2022-11-21T01:42:55.252Z,23.63
2022-11-21T01:45:42.267Z,22.37
2022-11-21T01:48:11.946Z,23.50
2022-11-21T01:50:40.302Z,23.13
2022-11-21T01:53:08.876Z,23.83
2022-11-21T01:55:37.150Z,24.43
2022-11-21T01:58:06.115Z,23.57
2022-11-21T02:00:36.040Z,23.97
2022-11-21T02:03:05.060Z,24.90
2022-11-21T02:05:35.067Z,25.53
2022-11-21T02:08:04.352Z,24.83
2022-11-21T02:10:32.624Z,25.23
2022-11-21T02:13:01.050Z,24.47
2022-11-21T02:15:29.625Z,26.50
2022-11-21T02:17:58.201Z,26.00
2022-11-21T02:20:26.859Z,26.17
2022-11-21T02:22:58.659Z,28.47
2022-11-21T02:25:28.695Z,26.23
2022-11-21T02:27:57.258Z,25.53
2022-11-21T02:30:26.080Z,26.53
2022-11-21T02:32:54.508Z,25.70
2022-11-21T02:35:22.823Z,24.17
2022-11-21T02:37:52.837Z,26.57
2022-11-21T02:40:21.610Z,26.53
2022-11-21T02:42:52.997Z,25.90
2022-11-21T02:45:22.368Z,26.37
2022-11-21T02:47:51.177Z,26.00
2022-11-21T02:50:21.130Z,26.77
2022-11-21T02:52:49.472Z,26.80
2022-11-21T02:55:17.844Z,25.53
2022-11-21T02:57:46.139Z,24.57
2022-11-21T03:00:16.099Z,25.57
2022-11-21T03:02:44.434Z,25.20
2022-11-21T03:05:13.371Z,25.40
2022-11-21T03:07:41.813Z,27.00
2022-11-21T03:10:10.560Z,24.43
2022-11-21T03:12:39.029Z,22.97
2022-11-21T03:15:07.860Z,25.10
2022-11-21T03:17:37.554Z,23.47
2022-11-21T03:20:06.141Z,25.00
2022-11-21T03:22:34.622Z,24.10
2022-11-21T03:25:02.943Z,22.60
2022-11-21T03:27:31.302Z,23.43
2022-11-21T03:29:59.663Z,22.80
2022-11-21T03:32:28.043Z,21.63
2022-11-21T03:34:57.723Z,21.27
2022-11-21T03:37:26.064Z,22.00
2022-11-21T03:39:54.490Z,22.30
2022-11-21T03:42:22.777Z,21.50
2022-11-21T03:44:51.090Z,23.17
2022-11-21T03:47:19.419Z,21.97
2022-11-21T03:49:47.816Z,22.80
2022-11-21T03:52:17.559Z,21.93
2022-11-21T03:54:45.922Z,20.93
2022-11-21T03:57:14.266Z,20.10
2022-11-21T03:59:42.586Z,20.87
2022-11-21T04:02:11.704Z,21.10
2022-11-21T04:04:39.994Z,21.27
2022-11-21T04:07:08.570Z,19.90
2022-11-21T04:09:38.473Z,20.03
2022-11-21T04:12:08.043Z,21.43
2022-11-21T04:14:36.524Z,20.63
2022-11-21T04:17:05.022Z,19.00
2022-11-21T04:19:33.259Z,18.73
2022-11-21T04:22:01.596Z,19.97
2022-11-21T04:24:30.337Z,19.10
2022-11-21T04:27:00.275Z,18.83
2022-11-21T04:29:28.711Z,19.83
2022-11-21T04:31:57.054Z,19.23
2022-11-21T04:34:25.795Z,19.57
2022-11-21T04:36:54.377Z,19.57
2022-11-21T04:39:22.787Z,20.30
2022-11-21T04:41:51.154Z,20.20
2022-11-21T04:44:20.850Z,20.53
2022-11-21T04:46:49.124Z,19.57
2022-11-21T04:49:17.423Z,20.40
2022-11-21T04:51:45.770Z,20.07
2022-11-21T04:54:14.199Z,20.13
2022-11-21T04:56:42.537Z,20.90
2022-11-21T04:59:11.993Z,20.57
2022-11-21T05:01:41.827Z,20.70
2022-11-21T05:04:10.308Z,20.00
2022-11-21T05:06:38.624Z,20.37
2022-11-21T05:09:06.980Z,20.57
2022-11-21T05:11:52.661Z,19.57
2022-11-21T05:14:20.972Z,21.80
2022-11-21T05:16:50.658Z,20.80
2022-11-21T05:19:18.935Z,21.70
2022-11-21T05:21:47.315Z,20.90
2022-11-21T05:24:15.987Z,21.53
2022-11-21T05:26:44.351Z,20.97
2022-11-21T05:29:12.921Z,21.17
2022-11-21T05:31:41.266Z,21.50
2022-11-21T05:34:10.978Z,22.33
2022-11-21T05:36:39.292Z,21.83
2022-11-21T05:39:07.586Z,22.20
2022-11-21T05:41:35.931Z,20.70
2022-11-21T05:44:03.317Z,22.40
2022-11-21T05:46:31.740Z,21.40
2022-11-21T05:49:00.072Z,22.20
2022-11-21T05:51:29.895Z,21.37
2022-11-21T05:53:58.244Z,22.40
2022-11-21T05:56:26.707Z,21.87
2022-11-21T05:58:56.415Z,23.47
2022-11-21T06:01:38.627Z,22.80
2022-11-21T06:04:06.932Z,22.60
2022-11-21T06:06:36.632Z,21.07
2022-11-21T06:09:04.974Z,20.60
2022-11-21T06:11:33.304Z,21.63
2022-11-21T06:14:01.580Z,21.40
2022-11-21T06:16:29.893Z,21.30
2022-11-21T06:18:58.969Z,20.83
2022-11-21T06:21:28.221Z,21.77
2022-11-21T06:23:58.290Z,21.50
2022-11-21T06:26:27.087Z,20.30
2022-11-21T06:28:55.642Z,21.13
2022-11-21T06:31:24.776Z,19.90
2022-11-21T06:33:53.698Z,20.03
2022-11-21T06:36:21.972Z,20.57
2022-11-21T06:38:50.294Z,20.27
2022-11-21T06:41:20.389Z,21.30
2022-11-21T06:43:48.740Z,20.63
2022-11-21T06:46:17.211Z,20.20
2022-11-21T06:48:45.485Z,20.10
2022-11-21T06:51:14.771Z,20.93
2022-11-21T06:53:43.062Z,20.17
2022-11-21T06:56:11.558Z,19.87
2022-11-21T06:58:41.343Z,20.47
2022-11-21T07:01:10.335Z,20.23
2022-11-21T07:03:38.790Z,19.97
2022-11-21T07:06:07.140Z,20.43
2022-11-21T07:08:36.379Z,19.63
2022-11-21T07:11:24.274Z,20.27
2022-11-21T07:14:03.827Z,18.90
2022-11-21T07:16:36.399Z,20.70
2022-11-21T07:19:05.113Z,20.47
2022-11-21T07:21:33.717Z,20.67
2022-11-21T07:24:02.116Z,19.87
2022-11-21T07:26:30.409Z,20.33
2022-11-21T07:29:00.205Z,20.67
2022-11-21T07:31:28.531Z,20.97
2022-11-21T07:33:56.863Z,20.83
2022-11-21T07:36:25.138Z,20.90
2022-11-21T07:38:53.567Z,20.70
2022-11-21T07:41:21.903Z,20.90
2022-11-21T07:43:50.339Z,20.67
2022-11-21T07:46:20.009Z,19.43
2022-11-21T07:48:48.481Z,19.70
2022-11-21T07:51:19.758Z,20.70
2022-11-21T07:53:48.668Z,19.43
2022-11-21T07:56:16.962Z,20.47
2022-11-21T07:58:45.242Z,20.07
2022-11-21T08:01:13.679Z,20.73
2022-11-21T08:03:43.662Z,19.97
2022-11-21T08:06:12.122Z,19.60
2022-11-21T08:08:40.566Z,19.80
2022-11-21T08:11:08.956Z,19.33
2022-11-21T08:13:37.255Z,20.67
2022-11-21T08:16:05.614Z,18.83
2022-11-21T08:18:33.969Z,19.00
2022-11-21T08:21:04.339Z,19.77
2022-11-21T08:23:32.775Z,19.13
2022-11-21T08:26:01.226Z,18.83
2022-11-21T08:28:29.591Z,17.43
2022-11-21T08:30:57.928Z,17.97
2022-11-21T08:33:26.313Z,17.53
2022-11-21T08:35:54.691Z,17.70
2022-11-21T08:38:24.361Z,16.97
2022-11-21T08:41:17.451Z,15.77
2022-11-21T08:43:46.373Z,12.63
2022-11-21T08:46:14.658Z,12.97
2022-11-21T08:48:43.125Z,10.47
2022-11-21T08:51:11.539Z,10.00
2022-11-21T08:53:41.372Z,8.60
2022-11-21T08:56:09.791Z,8.00
2022-11-21T08:58:38.119Z,7.77
2022-11-21T09:01:06.661Z,7.80
2022-11-21T09:03:35.295Z,7.87
2022-11-21T09:06:03.613Z,7.03
2022-11-21T09:08:31.921Z,7.73
2022-11-21T09:11:04.912Z,6.80
2022-11-21T09:13:33.294Z,7.63
2022-11-21T09:16:20.592Z,7.67
2022-11-21T09:18:49.215Z,6.60
2022-11-21T09:21:17.578Z,6.80
2022-11-21T09:23:47.055Z,6.63
2022-11-21T09:26:16.889Z,7.20
2022-11-21T09:28:45.159Z,6.03
2022-11-21T09:31:13.870Z,6.47
2022-11-21T09:33:42.293Z,5.60
2022-11-21T09:36:10.710Z,6.27
2022-11-21T09:38:42.198Z,5.53
2022-11-21T09:41:33.612Z,4.87
2022-11-21T09:44:06.082Z,5.43
2022-11-21T09:46:35.988Z,4.93
2022-11-21T09:49:05.711Z,5.03
2022-11-21T09:51:33.982Z,4.10
2022-11-21T09:54:03.378Z,4.67
2022-11-21T09:56:32.362Z,4.53
2022-11-21T09:59:21.784Z,5.30
2022-11-21T10:01:50.123Z,4.70
2022-11-21T10:04:21.633Z,4.97
2022-11-21T10:06:51.639Z,4.90
2022-11-21T10:09:20.836Z,5.23
2022-11-21T10:12:07.873Z,5.50
2022-11-21T10:14:42.809Z,4.30
2022-11-21T10:17:13.826Z,4.53
2022-11-21T10:19:47.980Z,4.50
2022-11-21T10:22:22.714Z,4.90
2022-11-21T10:24:56.830Z,4.80
2022-11-21T10:27:28.367Z,4.77
2022-11-21T10:30:00.231Z,4.23
2022-11-21T10:32:29.223Z,5.20
2022-11-21T10:34:57.870Z,5.37
2022-11-21T10:37:29.526Z,5.03
2022-11-21T10:39:57.905Z,5.30
2022-11-21T10:42:32.978Z,4.83
2022-11-21T10:45:19.886Z,5.47
2022-11-21T10:47:48.684Z,5.60
2022-11-21T10:50:27.313Z,5.43
2022-11-21T10:52:57.911Z,5.33
2022-11-21T10:55:26.344Z,5.33
2022-11-21T10:57:55.551Z,5.63
2022-11-21T11:00:26.135Z,5.90
2022-11-21T11:03:04.675Z,5.93
2022-11-21T11:05:33.689Z,7.23
2022-11-21T11:08:03.692Z,6.47
2022-11-21T11:10:32.194Z,7.57
2022-11-21T11:13:44.545Z,7.37
2022-11-21T11:16:08.749Z,7.30
2022-11-21T11:18:37.378Z,8.00
2022-11-21T11:21:13.660Z,7.40
2022-11-21T11:23:42.068Z,7.53
2022-11-21T11:26:20.394Z,7.60
2022-11-21T11:28:55.935Z,6.83
2022-11-21T11:31:25.926Z,8.80
2022-11-21T11:33:55.276Z,7.67
2022-11-21T11:36:31.332Z,8.73
2022-11-21T11:39:00.961Z,7.80
2022-11-21T11:42:16.411Z,6.17
2022-11-21T11:45:04.923Z,5.67
2022-11-21T11:47:35.414Z,4.70
2022-11-21T11:50:13.468Z,4.90
2022-11-21T11:52:44.942Z,4.97
2022-11-21T11:55:16.592Z,4.57
2022-11-21T11:57:45.117Z,4.33
2022-11-21T12:00:25.782Z,4.83
2022-11-21T12:02:57.306Z,4.17
2022-11-21T12:05:26.741Z,4.53
2022-11-21T12:08:40.072Z,4.70
2022-11-21T12:11:07.349Z,4.50
2022-11-21T12:13:35.720Z,3.20
2022-11-21T12:16:11.953Z,3.70
2022-11-21T12:18:44.914Z,3.00
2022-11-21T12:21:14.150Z,3.60
2022-11-21T12:23:43.998Z,4.00
2022-11-21T12:26:18.079Z,3.40
2022-11-21T12:28:48.468Z,2.97
2022-11-21T12:31:17.247Z,3.90
2022-11-21T12:33:48.645Z,3.70
2022-11-21T12:36:19.222Z,3.10
2022-11-21T12:38:51.801Z,3.57
2022-11-21T12:41:39.258Z,3.27
2022-11-21T12:44:11.433Z,3.37
2022-11-21T12:46:41.800Z,2.77
2022-11-21T12:49:30.870Z,3.30
2022-11-21T12:52:20.507Z,3.53
2022-11-21T12:54:58.281Z,3.87
2022-11-21T12:57:29.077Z,4.50
2022-11-21T12:59:59.973Z,5.37
2022-11-21T13:02:33.501Z,5.07
2022-11-21T13:05:03.225Z,4.73
2022-11-21T13:07:31.624Z,5.40
2022-11-21T13:10:00.808Z,5.37
2022-11-21T13:12:37.120Z,5.07
2022-11-21T13:15:07.653Z,5.33
2022-11-21T13:17:39.347Z,6.13
2022-11-21T13:20:15.143Z,4.80
2022-11-21T13:22:53.411Z,5.70
2022-11-21T13:25:39.485Z,5.93
2022-11-21T13:28:32.574Z,4.30
2022-11-21T13:31:01.711Z,4.40
2022-11-21T13:33:48.058Z,4.33
2022-11-21T13:36:32.096Z,4.50
2022-11-21T13:39:34.259Z,3.73
2022-11-21T13:42:22.417Z,4.10
2022-11-21T13:44:51.141Z,4.07
2022-11-21T13:47:33.703Z,4.20
2022-11-21T13:50:05.242Z,3.63
2022-11-21T13:52:35.102Z,4.00
2022-11-21T13:55:10.222Z,4.30
2022-11-21T13:57:47.024Z,4.10
2022-11-21T14:00:22.879Z,3.93
2022-11-21T14:02:56.295Z,3.57
2022-11-21T14:05:39.499Z,3.70
2022-11-21T14:08:15.161Z,3.70
2022-11-21T14:10:43.578Z,5.00
2022-11-21T14:13:18.895Z,4.07
2022-11-21T14:15:52.149Z,4.10
2022-11-21T14:18:22.912Z,3.87
2022-11-21T14:20:52.175Z,4.57
2022-11-21T14:23:20.933Z,3.30
2022-11-21T14:25:50.266Z,3.87
2022-11-21T14:28:23.415Z,3.40
2022-11-21T14:30:52.068Z,3.87
2022-11-21T14:33:24.215Z,3.53
2022-11-21T14:35:53.776Z,3.93
2022-11-21T14:38:22.643Z,3.90
2022-11-21T14:40:51.129Z,4.07
2022-11-21T14:43:30.795Z,3.37
2022-11-21T14:45:59.306Z,4.27
2022-11-21T14:48:28.301Z,4.10
2022-11-21T14:50:57.351Z,4.30
2022-11-21T14:53:26.936Z,4.70
2022-11-21T14:56:01.233Z,3.90
2022-11-21T14:58:31.889Z,4.30
2022-11-21T15:01:03.479Z,4.23
2022-11-21T15:03:31.992Z,4.43
2022-11-21T15:06:04.741Z,4.93
2022-11-21T15:11:22.704Z,5.50
2022-11-21T15:16:41.317Z,6.13
2022-11-21T15:19:10.879Z,4.90
2022-11-21T15:21:39.655Z,5.93
2022-11-21T15:24:17.813Z,5.67
2022-11-21T15:26:47.339Z,6.17
2022-11-21T15:29:22.874Z,6.97
2022-11-21T15:32:06.552Z,7.77
2022-11-21T15:34:36.561Z,7.40
2022-11-21T15:37:17.145Z,7.37
2022-11-21T15:39:45.665Z,7.80
2022-11-21T15:42:29.876Z,6.93
2022-11-21T15:45:02.861Z,8.10
2022-11-21T15:47:31.222Z,8.40
2022-11-21T15:49:59.628Z,8.27
2022-11-21T15:52:27.899Z,8.27
2022-11-21T15:54:58.258Z,9.03
2022-11-21T15:57:27.109Z,8.20
2022-11-21T15:59:55.441Z,8.40
2022-11-21T16:02:25.569Z,7.70
2022-11-21T16:04:54.622Z,7.93
2022-11-21T16:07:23.085Z,8.80
2022-11-21T16:09:52.265Z,8.43
2022-11-21T16:12:20.619Z,8.17
2022-11-21T16:14:48.948Z,7.53
2022-11-21T16:17:17.285Z,7.90
2022-11-21T16:19:47.217Z,7.67
2022-11-21T16:22:16.789Z,6.90
2022-11-21T16:24:45.220Z,6.03
2022-11-21T16:27:13.759Z,7.10
2022-11-21T16:29:42.283Z,7.20
2022-11-21T16:32:10.675Z,7.57
2022-11-21T16:34:39.048Z,7.83
2022-11-21T16:37:09.054Z,6.83
2022-11-21T16:39:37.338Z,6.43
2022-11-21T16:42:05.766Z,6.40
2022-11-21T16:44:34.230Z,6.43
2022-11-21T16:47:08.098Z,6.70
2022-11-21T16:49:42.772Z,6.20
2022-11-21T16:52:12.866Z,6.83
2022-11-21T16:54:41.142Z,7.50
2022-11-21T16:57:09.572Z,6.83
2022-11-21T16:59:41.027Z,6.80
2022-11-21T17:02:09.430Z,6.30
2022-11-21T17:04:38.113Z,8.00
2022-11-21T17:07:06.480Z,6.20
2022-11-21T17:09:37.481Z,7.23
2022-11-21T17:12:05.968Z,7.00
2022-11-21T17:14:34.376Z,6.40
2022-11-21T17:17:05.608Z,5.97
2022-11-21T17:19:33.997Z,6.33
2022-11-21T17:22:02.446Z,6.23
2022-11-21T17:24:31.020Z,6.20
2022-11-21T17:27:02.577Z,6.30
2022-11-21T17:29:32.058Z,6.20
2022-11-21T17:32:00.512Z,6.27
2022-11-21T17:34:33.026Z,7.03
2022-11-21T17:37:01.813Z,6.20
2022-11-21T17:39:30.509Z,6.40
2022-11-21T17:41:59.983Z,5.77
2022-11-21T17:44:30.006Z,5.73
2022-11-21T17:47:04.311Z,6.27
2022-11-21T17:49:42.170Z,5.60
2022-11-21T17:52:12.049Z,5.63
2022-11-21T17:54:41.011Z,5.67
2022-11-21T17:57:09.651Z,5.97
2022-11-21T17:59:39.678Z,6.10
2022-11-21T18:02:08.105Z,6.07
2022-11-21T18:04:39.032Z,6.17
2022-11-21T18:07:07.438Z,7.00
2022-11-21T18:09:36.057Z,7.07
2022-11-21T18:12:04.403Z,9.10
2022-11-21T18:14:32.713Z,7.60
2022-11-21T18:17:02.747Z,10.77
2022-11-21T18:19:31.129Z,7.37
2022-11-21T18:21:59.410Z,7.63
2022-11-21T18:24:28.055Z,7.37
2022-11-21T18:26:56.664Z,7.37
2022-11-21T18:29:36.573Z,6.60
2022-11-21T18:32:07.463Z,6.97
2022-11-21T18:34:38.814Z,7.37
2022-11-21T18:37:07.324Z,6.63
2022-11-21T18:39:37.042Z,7.30
2022-11-21T18:42:05.543Z,14.10
2022-11-21T18:44:33.850Z,19.57
2022-11-21T18:47:02.144Z,9.17
2022-11-21T18:49:32.809Z,7.53
2022-11-21T18:52:01.138Z,7.50
2022-11-21T18:54:29.913Z,7.40
2022-11-21T18:56:58.324Z,6.30
2022-11-21T18:59:26.792Z,7.20
2022-11-21T19:01:55.419Z,6.60
2022-11-21T19:04:24.720Z,7.00
2022-11-21T19:06:54.639Z,6.60
2022-11-21T19:09:25.778Z,7.03
2022-11-21T19:11:56.457Z,6.27
2022-11-21T19:14:24.791Z,6.30
2022-11-21T19:16:53.215Z,5.57
2022-11-21T19:19:36.729Z,6.47
2022-11-21T19:22:06.488Z,5.90
2022-11-21T19:24:34.890Z,4.87
2022-11-21T19:27:03.320Z,5.50
2022-11-21T19:29:33.263Z,5.77
2022-11-21T19:32:01.763Z,5.70
2022-11-21T19:34:30.076Z,5.20
2022-11-21T19:36:58.531Z,4.90
2022-11-21T19:39:28.708Z,5.00
2022-11-21T19:41:57.280Z,5.10
2022-11-21T19:44:25.789Z,5.23
2022-11-21T19:46:54.175Z,5.27
2022-11-21T19:49:22.506Z,4.40
2022-11-21T19:51:50.997Z,4.57
2022-11-21T19:54:19.314Z,5.00
2022-11-21T19:56:49.044Z,4.30
2022-11-21T19:59:17.532Z,5.73
2022-11-21T20:01:52.187Z,4.80
2022-11-21T20:04:21.045Z,4.37
2022-11-21T20:06:49.872Z,4.57
2022-11-21T20:09:18.963Z,4.70
2022-11-21T20:11:49.282Z,5.17
2022-11-21T20:14:21.835Z,5.33
2022-11-21T20:16:51.505Z,4.73
2022-11-21T20:19:20.528Z,4.90
2022-11-21T20:21:48.875Z,5.07
2022-11-21T20:24:17.622Z,4.67
2022-11-21T20:26:46.154Z,4.73
2022-11-21T20:29:15.950Z,5.20
2022-11-21T20:31:44.627Z,5.27
2022-11-21T20:34:13.524Z,5.30
2022-11-21T20:36:41.897Z,5.37
2022-11-21T20:39:10.788Z,5.70
2022-11-21T20:41:39.036Z,5.03
2022-11-21T20:45:07.096Z,5.60
2022-11-21T20:46:57.934Z,5.03
2022-11-21T20:49:26.573Z,5.43
2022-11-21T20:54:44.525Z,4.93
2022-11-21T20:57:15.313Z,5.10
2022-11-21T20:59:44.293Z,4.73
2022-11-21T21:02:14.789Z,4.97
2022-11-21T21:04:43.389Z,5.83
2022-11-21T21:07:13.256Z,5.13
2022-11-21T21:09:41.766Z,4.77
2022-11-21T21:12:10.178Z,5.50
2022-11-21T21:14:39.035Z,5.53
2022-11-21T21:17:07.685Z,4.73
2022-11-21T21:19:40.371Z,5.90
2022-11-21T21:22:10.345Z,4.83
2022-11-21T21:24:38.708Z,5.30
2022-11-21T21:27:07.952Z,5.33
2022-11-21T21:29:36.281Z,5.53
2022-11-21T21:32:05.090Z,5.60
2022-11-21T21:34:33.745Z,5.03
2022-11-21T21:37:03.481Z,5.47
2022-11-21T21:39:31.875Z,5.27
2022-11-21T21:42:00.377Z,5.27
2022-11-21T21:44:33.198Z,5.93
2022-11-21T21:47:01.945Z,5.80
2022-11-21T21:49:30.384Z,5.90
2022-11-21T21:51:58.992Z,5.97
2022-11-21T21:54:30.065Z,5.07
2022-11-21T21:56:58.923Z,5.70
2022-11-21T21:59:27.561Z,5.83
2022-11-21T22:01:58.362Z,5.50
2022-11-21T22:04:26.859Z,6.47
2022-11-21T22:06:55.220Z,6.60
2022-11-21T22:09:26.449Z,6.13
2022-11-21T22:11:56.813Z,6.17
2022-11-21T22:14:25.198Z,6.33
2022-11-21T22:16:54.987Z,6.57
2022-11-21T22:19:23.616Z,7.63
2022-11-21T22:21:51.928Z,7.57
2022-11-21T22:24:25.834Z,6.87
2022-11-21T22:26:56.333Z,7.90
2022-11-21T22:29:24.895Z,7.47
2022-11-21T22:31:55.270Z,7.97
2022-11-21T22:34:23.802Z,8.13
2022-11-21T22:36:52.365Z,8.73
2022-11-21T22:39:21.055Z,8.03
2022-11-21T22:41:49.526Z,8.10
2022-11-21T22:44:19.212Z,7.97
2022-11-21T22:46:47.518Z,8.57
2022-11-21T22:49:15.854Z,7.73
2022-11-21T22:51:44.250Z,7.97
2022-11-21T22:54:12.939Z,8.30
2022-11-21T22:56:41.505Z,8.10
2022-11-21T22:59:09.962Z,7.80
2022-11-21T23:01:39.749Z,9.30
2022-11-21T23:04:08.097Z,7.87
2022-11-21T23:06:36.494Z,8.40
2022-11-21T23:09:05.107Z,8.73
2022-11-21T23:11:40.297Z,8.23
2022-11-21T23:14:09.172Z,9.20
2022-11-21T23:16:37.589Z,8.77
2022-11-21T23:19:07.436Z,8.97
2022-11-21T23:21:36.366Z,8.40
2022-11-21T23:24:04.746Z,9.30
2022-11-21T23:26:33.069Z,8.57
2022-11-21T23:29:06.860Z,9.07
2022-11-21T23:31:37.188Z,8.77
2022-11-21T23:34:07.167Z,8.97
2022-11-21T23:36:35.638Z,8.50
2022-11-21T23:39:03.935Z,8.83
2022-11-21T23:41:35.291Z,9.30
2022-11-21T23:44:03.620Z,8.20
2022-11-21T23:46:31.955Z,9.07
2022-11-21T23:49:00.345Z,8.20
2022-11-21T23:51:30.106Z,7.97
2022-11-21T23:53:58.414Z,7.97
2022-11-21T23:56:26.758Z,8.03
2022-11-21T23:58:55.303Z,6.87
